Aviation Digital Data Service (ADDS)

Output produced by METARs form (0308 UTC 03 May 2016)
found at http://www.aviationweather.gov/adds/metars/
 
KMIV 030254Z AUTO 08007KT 9SM VCTS -RA OVC007 13/12 A2990 RMK AO2 LTG DSNT S-W RAB19 SLP124 P0001 60001 T01330122 58000
KMIV 030305Z 0303/0324 07004KT P6SM -SHRA OVC010 
     TEMPO 0303/0305 2SM TSRA BR BKN007 OVC025CB 
     FM030500 06007KT 2SM SHRA BR OVC003 
     FM031300 03008KT 5SM -SHRA BR OVC006 
     FM032100 06006KT P6SM OVC010